Washington, MO

12:51 PM CDT on April 25, 2017 (GMT -0500)
Washington

Weather History for KFYG - December, 2012

Change the Weather History Date:

Thursday, December 20, 2012

  Actual Average (KSUS) Record (KSUS)
Temperature  
Mean Temperature 40 °F -  
Max Temperature 55 °F 39 °F 69 °F (2013)
Min Temperature 26 °F 20 °F -5 °F (2000)
Degree Days  
Heating Degree Days 24    
Moisture  
Dew Point 34 °F    
Average Humidity 84    
Maximum Humidity 100    
Minimum Humidity 62    
Precipitation  
Precipitation 1.13 in - - ()
Sea Level Pressure  
Sea Level Pressure 29.59 in    
Wind  
Wind Speed 17 mph (West)    
Max Wind Speed 33 mph    
Max Gust Speed 47 mph    
Visibility 7 miles    
Events Rain , Snow , Thunderstorm    
Averages and records for this station are not official NWS values.
T = Trace of Precipitation, MM = Missing Value Source: NWS Daily Summary

Daily Weather History Graph

Daily Weather History Graph

Search for Another Location

Airport or City:

Trip Planner

Search our weather history database for the weather conditions in past years. The results will help you decide how hot, cold, wet, or windy it might be!

Date:

Astronomy

Dec. 20, 2012 Rise Set
Actual Time 7:17 AM CST 4:45 PM CST
Civil Twilight 6:47 AM CST 5:15 PM CST
Nautical Twilight 6:14 AM CST 5:49 PM CST
Astronomical Twilight 5:42 AM CST 6:21 PM CST
Moon 12:00 PM CST (12/20) 12:08 AM CST (12/20)
Length of Visible Light 10h 27m
Length of Day
9h 28m
First Quarter, 55% of the Moon is Illuminated
Dec 20
First Quarter
Dec 28
Full
Jan 4
Last Quarter
Jan 11
New
Jan 18
First Quarter

Hourly Weather History & Observations

Time (CST) Temp. Windchill Dew Point Humidity Pressure Visibility Wind Dir Wind Speed Gust Speed Precip Events Conditions
12:15 AM 51.8 °F - 50.0 °F 94% 29.48 in 4.0 mi SE 10.4 mph - N/A Rain , Thunderstorm Light Thunderstorms and Rain
12:35 AM 51.8 °F - 50.0 °F 94% 29.49 in 2.5 mi SSE 8.1 mph - 0.02 in Rain , Thunderstorm Light Rain
12:55 AM 53.6 °F - 53.6 °F 100% 29.48 in 2.5 mi SSE 16.1 mph - 0.07 in Rain , Thunderstorm Light Rain
1:15 AM 55.4 °F - 53.6 °F 94% 29.48 in 1.8 mi South 16.1 mph 23.0 mph 0.05 in Rain , Thunderstorm Rain
1:35 AM 55.4 °F - 53.6 °F 94% 29.47 in 2.0 mi South 18.4 mph - 0.09 in Rain Light Rain
1:55 AM 53.6 °F - 53.6 °F 100% 29.45 in 5.0 mi SSE 9.2 mph - 0.10 in Rain Light Rain
2:15 AM 53.6 °F - 53.6 °F 100% 29.44 in 5.0 mi SE 9.2 mph - N/A Rain , Thunderstorm Light Rain
2:35 AM 53.6 °F - 53.6 °F 100% 29.36 in 5.0 mi ESE 15.0 mph 23.0 mph N/A   Overcast
2:55 AM 53.6 °F - 53.6 °F 100% 29.36 in 10.0 mi ESE 17.3 mph 20.7 mph N/A   Mostly Cloudy
3:15 AM 53.6 °F - 53.6 °F 100% 29.33 in 10.0 mi ESE 13.8 mph - N/A   Mostly Cloudy
3:35 AM 53.6 °F - 53.6 °F 100% 29.31 in 10.0 mi ESE 12.7 mph 18.4 mph N/A   Overcast
3:55 AM 53.6 °F - 53.6 °F 100% 29.30 in 10.0 mi SE 10.4 mph - N/A   Overcast
4:15 AM 53.6 °F - 53.6 °F 100% 29.27 in 10.0 mi SE 10.4 mph - N/A   Overcast
4:35 AM 53.6 °F - 53.6 °F 100% 29.25 in 10.0 mi SE 8.1 mph - N/A   Overcast
4:55 AM 53.6 °F - 53.6 °F 100% 29.25 in 10.0 mi SE 10.4 mph - N/A   Overcast
5:15 AM 53.6 °F - 53.6 °F 100% 29.24 in 10.0 mi SSE 8.1 mph - N/A   Overcast
5:35 AM 51.8 °F - 51.8 °F 100% 29.24 in 10.0 mi South 6.9 mph - N/A   Mostly Cloudy
5:55 AM 53.6 °F - 53.6 °F 100% 29.23 in 10.0 mi South 8.1 mph - N/A   Mostly Cloudy
6:15 AM 55.4 °F - 50.0 °F 82% 29.24 in 10.0 mi SW 18.4 mph 29.9 mph N/A   Overcast
6:35 AM 55.4 °F - 44.6 °F 67% 29.27 in 10.0 mi SW 29.9 mph 34.5 mph N/A   Mostly Cloudy
6:55 AM 51.8 °F - 39.2 °F 62% 29.29 in 10.0 mi WSW 23.0 mph 36.8 mph N/A   Mostly Cloudy
7:15 AM 48.2 °F - 39.2 °F 71% 29.29 in 10.0 mi WSW 17.3 mph 32.2 mph N/A   Mostly Cloudy
7:35 AM 48.2 °F - 39.2 °F 71% 29.30 in 10.0 mi WSW 29.9 mph 42.6 mph N/A   Mostly Cloudy
7:55 AM 46.4 °F 40.4 °F 39.2 °F 76% 29.32 in 10.0 mi WSW 13.8 mph 39.1 mph N/A   Overcast
8:15 AM 44.6 °F 36.1 °F 35.6 °F 71% 29.33 in 10.0 mi WSW 21.9 mph 34.5 mph N/A   Mostly Cloudy
8:35 AM 41.0 °F 32.5 °F 33.8 °F 76% 29.35 in 10.0 mi WSW 17.3 mph 27.6 mph N/A   Overcast
9:15 AM 39.2 °F 29.8 °F 32.0 °F 75% 29.37 in 10.0 mi WSW 18.4 mph 26.5 mph N/A   Overcast
9:35 AM 37.4 °F 28.5 °F 32.0 °F 81% 29.38 in 10.0 mi West 15.0 mph 27.6 mph N/A   Overcast
9:55 AM 35.6 °F 26.6 °F 32.0 °F 87% 29.39 in 5.0 mi West 13.8 mph 28.8 mph N/A Rain Light Rain
10:15 AM 35.6 °F 25.5 °F 33.8 °F 93% 29.40 in 3.0 mi West 17.3 mph 31.1 mph 0.01 in Snow Light Snow
10:35 AM 35.6 °F 27.5 °F 33.8 °F 93% 29.42 in 4.0 mi West 11.5 mph 23.0 mph 0.02 in Rain Light Rain
10:55 AM 33.8 °F 22.2 °F 32.0 °F 93% 29.43 in 2.5 mi West 20.7 mph 32.2 mph 0.04 in Snow Light Snow
11:15 AM 32.0 °F 19.8 °F 32.0 °F 100% 29.44 in 1.5 mi WNW 20.7 mph 35.7 mph 0.10 in Snow Light Snow
11:35 AM 32.0 °F 18.1 °F 32.0 °F 100% 29.46 in 1.8 mi West 27.6 mph 38.0 mph 0.20 in Snow Light Snow
11:55 AM 32.0 °F 19.2 °F 28.4 °F 87% 29.49 in 7.0 mi WNW 23.0 mph 44.9 mph 0.23 in Snow Light Snow
12:15 PM 32.0 °F 18.4 °F 28.4 °F 87% 29.51 in 3.0 mi WNW 26.5 mph 47.2 mph N/A Rain Light Rain
12:35 PM 32.0 °F 17.2 °F 28.4 °F 87% 29.52 in 2.5 mi WNW 32.2 mph 44.9 mph 0.02 in   Mostly Cloudy
12:55 PM 32.0 °F 18.9 °F 30.2 °F 93% 29.55 in 0.8 mi WNW 24.2 mph 43.7 mph 0.06 in Snow Light Snow
1:15 PM 32.0 °F 18.1 °F 30.2 °F 93% 29.57 in 1.0 mi WNW 27.6 mph 36.8 mph 0.05 in Snow Light Snow
1:35 PM 32.0 °F 18.4 °F 30.2 °F 93% 29.58 in 0.5 mi WNW 26.5 mph 43.7 mph 0.24 in Snow Snow
1:55 PM 32.0 °F 18.4 °F 30.2 °F 93% 29.61 in 0.5 mi WNW 26.5 mph 41.4 mph 0.49 in Snow Snow
2:15 PM 32.0 °F 17.4 °F 28.4 °F 87% 29.63 in 1.0 mi WNW 31.1 mph 46.0 mph 0.04 in Snow Light Snow
2:35 PM 32.0 °F 18.4 °F 28.4 °F 87% 29.65 in 1.0 mi WNW 26.5 mph 41.4 mph 0.10 in Snow Light Snow
2:55 PM 32.0 °F 17.6 °F 28.4 °F 87% 29.67 in 1.5 mi WNW 29.9 mph 42.6 mph 0.13 in   Scattered Clouds
3:15 PM 32.0 °F 17.9 °F 26.6 °F 80% 29.69 in 2.5 mi WNW 28.8 mph 47.2 mph N/A   Partly Cloudy
3:35 PM 32.0 °F 17.4 °F 26.6 °F 80% 29.72 in 4.0 mi WNW 31.1 mph 43.7 mph 0.01 in Rain Light Rain
3:55 PM 32.0 °F 17.0 °F 24.8 °F 75% 29.75 in 10.0 mi WNW 33.4 mph 44.9 mph 0.01 in   Mostly Cloudy
4:15 PM 32.0 °F 18.9 °F 24.8 °F 75% 29.78 in 10.0 mi WNW 24.2 mph 44.9 mph N/A   Overcast
4:35 PM 32.0 °F 17.4 °F 24.8 °F 75% 29.79 in 10.0 mi WNW 31.1 mph 44.9 mph N/A   Overcast
4:55 PM 32.0 °F 18.4 °F 23.0 °F 69% 29.81 in 10.0 mi WNW 26.5 mph 43.7 mph N/A   Overcast
5:15 PM 30.2 °F 14.9 °F 23.0 °F 75% 29.82 in 10.0 mi WNW 31.1 mph 41.4 mph N/A   Overcast
5:35 PM 30.2 °F 16.5 °F 23.0 °F 75% 29.84 in 10.0 mi WNW 24.2 mph 34.5 mph N/A   Overcast
5:55 PM 30.2 °F 16.2 °F 23.0 °F 75% 29.85 in 10.0 mi WNW 25.3 mph 35.7 mph N/A   Overcast
6:15 PM 30.2 °F 15.7 °F 23.0 °F 75% 29.87 in 10.0 mi WNW 27.6 mph 39.1 mph N/A   Overcast
6:35 PM 30.2 °F 16.5 °F 23.0 °F 75% 29.88 in 10.0 mi WNW 24.2 mph 39.1 mph N/A   Overcast
6:55 PM 30.2 °F 14.7 °F 23.0 °F 75% 29.89 in 10.0 mi WNW 32.2 mph 46.0 mph N/A   Overcast
7:15 PM 28.4 °F 13.5 °F 23.0 °F 80% 29.91 in 10.0 mi WNW 26.5 mph 38.0 mph N/A   Overcast
7:35 PM 28.4 °F 14.1 °F 21.2 °F 74% 29.91 in 10.0 mi WNW 24.2 mph 33.4 mph N/A   Mostly Cloudy
8:15 PM 28.4 °F 14.1 °F 21.2 °F 74% 29.93 in 10.0 mi WNW 24.2 mph 36.8 mph N/A   Mostly Cloudy
8:35 PM 28.4 °F 14.4 °F 19.4 °F 69% 29.94 in 10.0 mi WNW 23.0 mph 32.2 mph N/A   Scattered Clouds
8:55 PM 28.4 °F 16.2 °F 19.4 °F 69% 29.95 in 10.0 mi WNW 17.3 mph 29.9 mph N/A   Partly Cloudy
9:15 PM 28.4 °F 14.7 °F 19.4 °F 69% 29.96 in 10.0 mi WNW 21.9 mph 29.9 mph N/A   Scattered Clouds
9:35 PM 28.4 °F 15.4 °F 19.4 °F 69% 29.96 in 10.0 mi WNW 19.6 mph 31.1 mph N/A   Partly Cloudy
9:55 PM 28.4 °F 14.4 °F 19.4 °F 69% 29.98 in 10.0 mi WNW 23.0 mph 34.5 mph N/A   Partly Cloudy
10:15 PM 26.6 °F 13.8 °F 19.4 °F 74% 29.98 in 10.0 mi WNW 17.3 mph 29.9 mph N/A   Clear
10:35 PM 26.6 °F 12.7 °F 19.4 °F 74% 29.99 in 10.0 mi WNW 20.7 mph 35.7 mph N/A   Clear
10:55 PM 26.6 °F 12.4 °F 19.4 °F 74% 30.00 in 10.0 mi WNW 21.9 mph 29.9 mph N/A   Partly Cloudy
11:15 PM 26.6 °F 13.4 °F 19.4 °F 74% 30.01 in 10.0 mi WNW 18.4 mph 35.7 mph N/A   Partly Cloudy
11:35 PM 26.6 °F 14.3 °F 19.4 °F 74% 30.02 in 10.0 mi WNW 16.1 mph 27.6 mph N/A   Clear
11:55 PM 26.6 °F 13.8 °F 19.4 °F 74% 30.03 in 10.0 mi WNW 17.3 mph 23.0 mph N/A   Clear